createdAt,value
2023-05-03T00:00:17.228Z,4.22
2023-05-03T00:02:46.892Z,4.20
2023-05-03T00:05:15.544Z,4.47
2023-05-03T00:07:44.938Z,4.55
2023-05-03T00:10:15.765Z,4.10
2023-05-03T00:12:44.990Z,4.32
2023-05-03T00:15:13.150Z,3.97
2023-05-03T00:17:41.313Z,4.32
2023-05-03T00:20:12.096Z,4.13
2023-05-03T00:22:40.056Z,4.68
2023-05-03T00:25:09.457Z,4.50
2023-05-03T00:27:37.655Z,4.78
2023-05-03T00:30:06.708Z,4.78
2023-05-03T00:32:34.790Z,4.85
2023-05-03T00:35:02.893Z,4.93
2023-05-03T00:37:32.621Z,4.63
2023-05-03T00:40:00.737Z,4.63
2023-05-03T00:42:28.900Z,4.22
2023-05-03T00:44:56.895Z,4.50
2023-05-03T00:47:25.688Z,4.82
2023-05-03T00:49:53.725Z,4.88
2023-05-03T00:52:21.719Z,4.63
2023-05-03T00:54:51.206Z,4.35
2023-05-03T00:57:19.209Z,4.30
2023-05-03T00:59:47.804Z,4.90
2023-05-03T01:02:15.785Z,4.47
2023-05-03T01:04:43.773Z,4.82
2023-05-03T01:07:23.546Z,4.40
2023-05-03T01:10:01.067Z,4.88
2023-05-03T01:12:38.751Z,4.97
2023-05-03T01:15:13.556Z,5.10
2023-05-03T01:17:50.947Z,5.43
2023-05-03T01:20:24.818Z,5.03
2023-05-03T01:23:02.912Z,4.95
2023-05-03T01:25:32.798Z,4.93
2023-05-03T01:28:01.530Z,5.13
2023-05-03T01:30:31.957Z,5.45
2023-05-03T01:33:06.280Z,5.60
2023-05-03T01:35:41.714Z,6.13
2023-05-03T01:38:10.814Z,5.63
2023-05-03T01:40:46.183Z,5.88
2023-05-03T01:43:17.040Z,5.85
2023-05-03T01:45:45.503Z,6.13
2023-05-03T01:48:16.104Z,5.68
2023-05-03T01:50:44.192Z,6.18
2023-05-03T01:53:12.265Z,6.13
2023-05-03T01:55:41.719Z,6.35
2023-05-03T01:58:09.787Z,6.15
2023-05-03T02:00:37.812Z,6.38
2023-05-03T02:03:05.986Z,6.03
2023-05-03T02:05:34.070Z,6.57
2023-05-03T02:08:02.007Z,6.60
2023-05-03T02:10:30.031Z,6.85
2023-05-03T02:12:59.401Z,6.50
2023-05-03T02:15:27.443Z,5.95
2023-05-03T02:17:55.637Z,6.20
2023-05-03T02:20:23.762Z,6.53
2023-05-03T02:22:51.725Z,5.82
2023-05-03T02:25:19.770Z,6.22
2023-05-03T02:27:47.718Z,6.18
2023-05-03T02:30:17.283Z,5.38
2023-05-03T02:32:45.346Z,6.90
2023-05-03T02:35:13.544Z,6.10
2023-05-03T02:37:41.514Z,6.40
2023-05-03T02:40:10.990Z,5.72
2023-05-03T02:42:38.978Z,6.45
2023-05-03T02:45:08.105Z,6.13
2023-05-03T02:47:37.537Z,6.10
2023-05-03T02:50:06.603Z,5.72
2023-05-03T02:52:34.668Z,5.78
2023-05-03T02:55:03.037Z,6.10
2023-05-03T02:57:31.013Z,4.82
2023-05-03T02:59:59.009Z,5.63
2023-05-03T03:02:27.075Z,5.75
2023-05-03T03:04:56.495Z,5.22
2023-05-03T03:07:24.570Z,5.55
2023-05-03T03:09:52.568Z,5.40
2023-05-03T03:12:20.704Z,4.85
2023-05-03T03:14:48.677Z,5.18
2023-05-03T03:17:16.616Z,5.00
2023-05-03T03:19:44.590Z,4.90
2023-05-03T03:22:13.936Z,4.55
2023-05-03T03:24:42.272Z,5.00
2023-05-03T03:27:10.246Z,4.70
2023-05-03T03:29:38.231Z,4.90
2023-05-03T03:32:07.211Z,4.45
2023-05-03T03:34:35.363Z,4.38
2023-05-03T03:37:03.338Z,4.47
2023-05-03T03:39:32.676Z,4.25
2023-05-03T03:42:02.963Z,4.32
2023-05-03T03:44:30.994Z,5.00
2023-05-03T03:46:59.066Z,4.47
2023-05-03T03:49:27.214Z,4.40
2023-05-03T03:51:55.180Z,4.28
2023-05-03T03:54:23.148Z,4.57
2023-05-03T03:56:53.384Z,4.72
2023-05-03T03:59:21.359Z,4.47
2023-05-03T04:01:49.361Z,4.53
2023-05-03T04:04:17.396Z,4.40
2023-05-03T04:06:45.527Z,4.97
2023-05-03T04:09:13.944Z,5.05
2023-05-03T04:11:42.000Z,4.72
2023-05-03T04:14:11.397Z,4.35
2023-05-03T04:16:39.472Z,4.60
2023-05-03T04:19:07.707Z,4.80
2023-05-03T04:21:35.818Z,4.35
2023-05-03T04:24:05.837Z,4.45
2023-05-03T04:26:33.996Z,4.50
2023-05-03T04:29:02.702Z,4.60
2023-05-03T04:31:32.562Z,3.72
2023-05-03T04:34:01.067Z,4.63
2023-05-03T04:36:31.376Z,4.15
2023-05-03T04:38:59.454Z,4.82
2023-05-03T04:41:27.422Z,4.78
2023-05-03T04:43:55.476Z,4.65
2023-05-03T04:46:23.536Z,4.70
2023-05-03T04:48:53.127Z,4.32
2023-05-03T04:51:21.173Z,4.63
2023-05-03T04:53:49.194Z,4.78
2023-05-03T04:56:17.522Z,4.63
2023-05-03T04:58:45.552Z,4.45
2023-05-03T05:01:14.196Z,4.28
2023-05-03T05:03:42.256Z,4.75
2023-05-03T05:06:12.455Z,4.32
2023-05-03T05:08:40.681Z,4.13
2023-05-03T05:11:08.760Z,3.92
2023-05-03T05:13:36.837Z,4.57
2023-05-03T05:16:05.038Z,4.35
2023-05-03T05:18:32.992Z,4.32
2023-05-03T05:21:01.071Z,4.20
2023-05-03T05:23:30.561Z,4.05
2023-05-03T05:26:00.546Z,4.60
2023-05-03T05:28:28.824Z,4.35
2023-05-03T05:30:56.904Z,4.25
2023-05-03T05:33:25.444Z,4.47
2023-05-03T05:35:53.505Z,4.35
2023-05-03T05:38:21.483Z,4.07
2023-05-03T05:40:50.964Z,4.22
2023-05-03T05:43:18.968Z,3.85
2023-05-03T05:45:47.008Z,3.95
2023-05-03T05:48:15.523Z,3.97
2023-05-03T05:50:44.321Z,3.55
2023-05-03T05:53:12.303Z,3.47
2023-05-03T05:55:40.417Z,3.40
2023-05-03T05:58:09.915Z,4.18
2023-05-03T06:00:37.919Z,3.55
2023-05-03T06:03:06.248Z,3.83
2023-05-03T06:05:34.296Z,3.50
2023-05-03T06:08:02.361Z,3.97
2023-05-03T06:10:30.578Z,3.65
2023-05-03T06:12:58.612Z,4.00
2023-05-03T06:15:28.126Z,3.58
2023-05-03T06:17:56.187Z,3.60
2023-05-03T06:20:25.032Z,3.40
2023-05-03T06:22:53.071Z,3.10
2023-05-03T06:25:21.312Z,2.95
2023-05-03T06:27:49.308Z,3.35
2023-05-03T06:30:17.580Z,3.65
2023-05-03T06:32:49.053Z,3.60
2023-05-03T06:35:19.252Z,3.72
2023-05-03T06:37:47.183Z,3.13
2023-05-03T06:40:15.684Z,2.95
2023-05-03T06:42:43.723Z,2.90
2023-05-03T06:45:12.245Z,2.88
2023-05-03T06:47:42.440Z,2.50
2023-05-03T06:50:12.462Z,2.58
2023-05-03T06:52:41.225Z,2.70
2023-05-03T06:55:10.006Z,2.35
2023-05-03T06:57:38.023Z,2.60
2023-05-03T07:00:07.236Z,2.40
2023-05-03T07:02:35.539Z,2.30
2023-05-03T07:05:03.601Z,2.75
2023-05-03T07:07:33.562Z,2.45
2023-05-03T07:10:01.825Z,2.20
2023-05-03T07:12:30.039Z,2.10
2023-05-03T07:14:58.065Z,2.13
2023-05-03T07:17:26.596Z,1.50
2023-05-03T07:19:55.164Z,1.60
2023-05-03T07:22:24.858Z,1.70
2023-05-03T07:24:54.930Z,1.88
2023-05-03T07:27:23.205Z,1.63
2023-05-03T07:29:51.229Z,1.88
2023-05-03T07:32:21.791Z,1.98
2023-05-03T07:34:50.005Z,1.63
2023-05-03T07:37:18.091Z,2.20
2023-05-03T07:39:46.292Z,1.55
2023-05-03T07:42:15.713Z,1.73
2023-05-03T07:44:43.723Z,1.70
2023-05-03T07:47:11.756Z,2.03
2023-05-03T07:49:39.732Z,2.03
2023-05-03T07:52:07.673Z,1.80
2023-05-03T07:54:35.813Z,1.58
2023-05-03T07:57:03.898Z,2.00
2023-05-03T07:59:35.210Z,1.60
2023-05-03T08:02:03.297Z,2.33
2023-05-03T08:04:31.418Z,2.15
2023-05-03T08:07:02.001Z,2.08
2023-05-03T08:09:30.653Z,2.00
2023-05-03T08:11:58.671Z,1.77
2023-05-03T08:14:27.677Z,2.22
2023-05-03T08:16:57.001Z,1.83
2023-05-03T08:19:24.972Z,1.95
2023-05-03T08:21:54.515Z,2.30
2023-05-03T08:24:22.455Z,2.03
2023-05-03T08:26:50.551Z,1.95
2023-05-03T08:29:18.500Z,2.25
2023-05-03T08:31:46.514Z,2.05
2023-05-03T08:34:15.864Z,2.10
2023-05-03T08:36:44.646Z,2.08
2023-05-03T08:39:15.250Z,1.63
2023-05-03T08:41:43.502Z,1.60
2023-05-03T08:44:14.336Z,1.90
2023-05-03T08:46:44.578Z,2.15
2023-05-03T08:49:15.898Z,1.83
2023-05-03T08:51:47.215Z,2.42
2023-05-03T08:54:15.790Z,2.00
2023-05-03T08:56:46.531Z,1.98
2023-05-03T08:59:17.201Z,1.90
2023-05-03T09:01:45.384Z,2.13
2023-05-03T09:04:15.197Z,2.50
2023-05-03T09:06:43.324Z,2.00
2023-05-03T09:09:12.217Z,2.28
2023-05-03T09:11:40.739Z,2.60
2023-05-03T09:14:13.002Z,2.30
2023-05-03T09:16:41.886Z,2.55
2023-05-03T09:19:12.308Z,2.78
2023-05-03T09:21:43.106Z,2.60
2023-05-03T09:24:15.169Z,2.90
2023-05-03T09:26:43.946Z,2.33
2023-05-03T09:29:12.151Z,2.47
2023-05-03T09:32:00.541Z,2.60
2023-05-03T09:34:28.866Z,2.70
2023-05-03T09:36:58.273Z,2.65
2023-05-03T09:39:26.482Z,2.78
2023-05-03T09:41:55.098Z,2.65
2023-05-03T09:44:42.480Z,2.67
2023-05-03T09:47:10.767Z,2.45
2023-05-03T09:49:39.533Z,2.90
2023-05-03T09:52:09.973Z,2.92
2023-05-03T09:54:38.579Z,2.65
2023-05-03T09:57:08.223Z,2.78
2023-05-03T09:59:37.810Z,2.70
2023-05-03T10:02:07.513Z,2.60
2023-05-03T10:04:43.376Z,3.10
2023-05-03T10:07:18.490Z,2.95
2023-05-03T10:09:48.498Z,2.78
2023-05-03T10:12:17.848Z,2.85
2023-05-03T10:14:47.891Z,2.83
2023-05-03T10:17:19.699Z,2.60
2023-05-03T10:19:55.381Z,2.47
2023-05-03T10:22:24.735Z,3.28
2023-05-03T10:25:13.112Z,2.88
2023-05-03T10:27:54.214Z,2.97
2023-05-03T10:30:31.139Z,2.97
2023-05-03T10:33:00.212Z,3.05
2023-05-03T10:35:29.330Z,2.80
2023-05-03T10:37:58.743Z,2.72
2023-05-03T10:40:43.077Z,2.95
2023-05-03T10:43:44.730Z,3.28
2023-05-03T10:46:36.573Z,2.70
2023-05-03T10:49:19.211Z,3.43
2023-05-03T10:54:17.159Z,3.40
2023-05-03T10:56:52.997Z,3.47
2023-05-03T10:59:22.014Z,3.22
2023-05-03T11:01:52.395Z,3.45
2023-05-03T11:04:31.748Z,2.78
2023-05-03T11:07:00.396Z,3.50
2023-05-03T11:09:36.670Z,3.38
2023-05-03T11:12:09.505Z,3.50
2023-05-03T11:14:39.586Z,4.03
2023-05-03T11:17:07.738Z,3.35
2023-05-03T11:19:35.863Z,3.83
2023-05-03T11:22:03.957Z,3.60
2023-05-03T11:24:31.956Z,3.22
2023-05-03T11:27:07.737Z,3.45
2023-05-03T11:29:37.627Z,4.55
2023-05-03T11:32:08.868Z,3.80
2023-05-03T11:34:37.080Z,3.47
2023-05-03T11:37:05.264Z,3.58
2023-05-03T11:39:34.105Z,3.90
2023-05-03T11:42:04.366Z,3.65
2023-05-03T11:44:32.533Z,3.67
2023-05-03T11:47:00.992Z,3.85
2023-05-03T11:49:29.168Z,3.72
2023-05-03T11:51:57.488Z,3.25
2023-05-03T11:54:27.678Z,3.97
2023-05-03T11:57:00.088Z,4.13
2023-05-03T11:59:39.926Z,3.60
2023-05-03T12:02:09.498Z,4.47
2023-05-03T12:04:41.618Z,4.85
2023-05-03T12:07:11.340Z,4.00
2023-05-03T12:09:41.078Z,4.35
2023-05-03T12:12:11.307Z,3.55
2023-05-03T12:15:01.726Z,3.88
2023-05-03T12:17:40.541Z,4.07
2023-05-03T12:22:51.161Z,4.10
2023-05-03T12:25:21.122Z,4.43
2023-05-03T12:28:01.921Z,3.80
2023-05-03T12:30:40.786Z,4.07
2023-05-03T12:33:10.398Z,3.92
2023-05-03T12:35:40.897Z,4.00
2023-05-03T12:38:10.493Z,4.20
2023-05-03T12:40:40.857Z,3.63
2023-05-03T12:43:09.088Z,4.00
2023-05-03T12:45:40.933Z,3.58
2023-05-03T12:50:39.413Z,4.35
2023-05-03T12:53:09.884Z,3.90
2023-05-03T12:55:43.694Z,4.30
2023-05-03T12:58:43.291Z,4.00
2023-05-03T13:01:51.162Z,3.80
2023-05-03T13:04:03.589Z,4.25
2023-05-03T13:06:42.882Z,3.63
2023-05-03T13:09:19.317Z,4.20
2023-05-03T13:11:50.388Z,4.28
2023-05-03T13:14:18.615Z,4.10
2023-05-03T13:16:49.142Z,3.85
2023-05-03T13:19:17.865Z,4.13
2023-05-03T13:21:49.076Z,4.10
2023-05-03T13:24:17.350Z,4.13
2023-05-03T13:26:45.403Z,4.13
2023-05-03T13:29:13.387Z,3.60
2023-05-03T13:31:41.555Z,3.67
2023-05-03T13:34:10.881Z,3.40
2023-05-03T13:36:38.908Z,3.80
2023-05-03T13:39:09.600Z,3.78
2023-05-03T13:41:40.447Z,3.88
2023-05-03T13:44:09.742Z,3.80
2023-05-03T13:46:38.567Z,3.50
2023-05-03T13:49:07.336Z,3.80
2023-05-03T13:51:37.299Z,3.55
2023-05-03T13:54:07.663Z,3.50
2023-05-03T13:56:36.042Z,3.47
2023-05-03T13:59:04.507Z,3.97
2023-05-03T14:01:32.532Z,3.75
2023-05-03T14:04:00.641Z,3.78
2023-05-03T14:06:32.024Z,4.00
2023-05-03T14:09:02.988Z,4.55
2023-05-03T14:11:31.949Z,4.00
2023-05-03T14:14:00.154Z,3.67
2023-05-03T14:18:59.608Z,3.35
2023-05-03T14:21:29.837Z,3.53
2023-05-03T14:23:57.860Z,3.75
2023-05-03T14:26:29.431Z,3.47
2023-05-03T14:28:57.646Z,3.42
2023-05-03T14:31:25.661Z,3.60
2023-05-03T14:33:53.636Z,3.40
2023-05-03T14:36:21.664Z,3.42
2023-05-03T14:38:49.730Z,3.53
2023-05-03T14:41:17.727Z,4.10
2023-05-03T14:43:47.308Z,3.40
2023-05-03T14:46:15.312Z,3.00
2023-05-03T14:48:43.292Z,3.65
2023-05-03T14:51:11.329Z,3.30
2023-05-03T14:53:39.365Z,3.28
2023-05-03T14:56:07.725Z,3.50
2023-05-03T14:58:35.744Z,3.55
2023-05-03T15:01:05.203Z,3.42
2023-05-03T15:03:33.464Z,3.75
2023-05-03T15:06:01.575Z,3.70
2023-05-03T15:08:31.289Z,3.30
2023-05-03T15:10:59.294Z,3.30
2023-05-03T15:13:27.452Z,3.53
2023-05-03T15:15:56.348Z,3.85
2023-05-03T15:18:27.390Z,3.15
2023-05-03T15:20:55.548Z,3.38
2023-05-03T15:23:23.490Z,3.47
2023-05-03T15:25:51.524Z,3.45
2023-05-03T15:28:20.088Z,3.40
2023-05-03T15:30:48.219Z,3.05
2023-05-03T15:33:16.200Z,3.75
2023-05-03T15:35:45.628Z,3.13
2023-05-03T15:38:13.641Z,3.40
2023-05-03T15:40:42.019Z,3.58
2023-05-03T15:43:10.023Z,3.20
2023-05-03T15:45:38.117Z,3.40
2023-05-03T15:48:07.009Z,3.55
2023-05-03T15:50:35.129Z,3.30
2023-05-03T15:53:04.522Z,3.17
2023-05-03T15:55:32.556Z,2.80
2023-05-03T15:58:00.544Z,3.40
2023-05-03T16:00:28.565Z,2.90
2023-05-03T16:02:57.300Z,3.20
2023-05-03T16:05:25.504Z,3.53
2023-05-03T16:07:53.964Z,3.28
2023-05-03T16:10:24.938Z,3.35
2023-05-03T16:15:20.996Z,3.42
2023-05-03T16:17:49.468Z,3.30
2023-05-03T16:20:17.555Z,3.40
2023-05-03T16:22:46.200Z,3.40
2023-05-03T16:25:16.084Z,3.30
2023-05-03T16:27:45.623Z,3.20
2023-05-03T16:30:14.434Z,3.80
2023-05-03T16:32:42.766Z,3.38
2023-05-03T16:35:11.134Z,3.70
2023-05-03T16:37:39.636Z,3.65
2023-05-03T16:40:11.453Z,3.45
2023-05-03T16:42:39.740Z,3.40
2023-05-03T16:45:10.839Z,3.45
2023-05-03T16:47:39.144Z,3.60
2023-05-03T16:50:08.543Z,3.40
2023-05-03T16:52:40.239Z,3.40
2023-05-03T16:57:37.578Z,3.72
2023-05-03T17:00:09.302Z,3.65
2023-05-03T17:02:40.203Z,3.25
2023-05-03T17:05:10.455Z,3.60
2023-05-03T17:07:38.476Z,3.83
2023-05-03T17:10:07.910Z,3.80
2023-05-03T17:12:36.551Z,3.47
2023-05-03T17:15:05.093Z,3.38
2023-05-03T17:17:33.357Z,3.40
2023-05-03T17:20:02.995Z,3.20
2023-05-03T17:22:31.464Z,3.33
2023-05-03T17:24:59.580Z,3.35
2023-05-03T17:27:27.616Z,4.00
2023-05-03T17:29:56.886Z,3.58
2023-05-03T17:32:24.968Z,3.40
2023-05-03T17:34:52.984Z,3.58
2023-05-03T17:37:23.874Z,3.78
2023-05-03T17:39:51.978Z,3.55
2023-05-03T17:42:19.969Z,3.70
2023-05-03T17:44:48.068Z,3.70
2023-05-03T17:47:16.671Z,3.55
2023-05-03T17:49:44.765Z,3.53
2023-05-03T17:52:12.765Z,3.90
2023-05-03T17:54:43.069Z,3.22
2023-05-03T17:57:11.148Z,3.78
2023-05-03T17:59:39.223Z,3.70
2023-05-03T18:02:07.589Z,3.63
2023-05-03T18:04:36.017Z,3.50
2023-05-03T18:07:03.983Z,3.78
2023-05-03T18:09:32.997Z,3.90
2023-05-03T18:12:03.776Z,3.40
2023-05-03T18:14:31.921Z,4.07
2023-05-03T18:17:00.272Z,3.83
2023-05-03T18:19:29.162Z,3.88
2023-05-03T18:21:57.181Z,4.25
2023-05-03T18:24:25.270Z,4.30
2023-05-03T18:26:53.332Z,4.18
2023-05-03T18:29:22.735Z,4.05
2023-05-03T18:31:52.388Z,4.70
2023-05-03T18:34:20.361Z,4.47
2023-05-03T18:36:48.402Z,4.40
2023-05-03T18:39:17.195Z,4.13
2023-05-03T18:41:45.236Z,4.45
2023-05-03T18:44:13.293Z,4.53
2023-05-03T18:46:43.353Z,5.07
2023-05-03T18:49:11.990Z,4.63
2023-05-03T18:51:39.957Z,4.75
2023-05-03T18:54:07.903Z,4.70
2023-05-03T18:56:35.918Z,4.78
2023-05-03T18:59:03.987Z,5.00
2023-05-03T19:01:32.052Z,5.20
2023-05-03T19:04:01.455Z,5.45
2023-05-03T19:06:29.449Z,5.07
2023-05-03T19:08:57.728Z,5.22
2023-05-03T19:11:26.556Z,4.70
2023-05-03T19:13:55.089Z,4.40
2023-05-03T19:16:23.082Z,4.90
2023-05-03T19:18:51.173Z,4.65
2023-05-03T19:21:20.699Z,5.13
2023-05-03T19:23:48.704Z,4.45
2023-05-03T19:26:16.780Z,5.18
2023-05-03T19:28:45.004Z,4.93
2023-05-03T19:31:13.054Z,5.10
2023-05-03T19:33:41.045Z,5.03
2023-05-03T19:36:14.120Z,5.00
2023-05-03T19:38:43.461Z,5.07
2023-05-03T19:41:12.665Z,4.85
2023-05-03T19:43:41.329Z,5.00
2023-05-03T19:46:09.361Z,5.03
2023-05-03T19:48:37.346Z,5.00
2023-05-03T19:51:06.117Z,5.32
2023-05-03T19:53:34.751Z,5.45
2023-05-03T19:56:04.499Z,5.45
2023-05-03T19:58:33.049Z,6.07
2023-05-03T20:01:01.653Z,5.63
2023-05-03T20:03:29.910Z,5.75
2023-05-03T20:05:58.635Z,5.28
2023-05-03T20:08:27.107Z,5.90
2023-05-03T20:10:56.369Z,5.63
2023-05-03T20:13:27.606Z,6.35
2023-05-03T20:15:56.259Z,5.57
2023-05-03T20:18:24.231Z,6.00
2023-05-03T20:20:52.319Z,5.95
2023-05-03T20:23:20.859Z,6.80
2023-05-03T20:25:48.899Z,6.28
2023-05-03T20:28:17.899Z,6.00
2023-05-03T20:30:47.287Z,6.22
2023-05-03T20:33:15.538Z,5.43
2023-05-03T20:35:43.634Z,5.88
2023-05-03T20:38:11.724Z,5.85
2023-05-03T20:40:39.926Z,6.00
2023-05-03T20:43:09.037Z,6.05
2023-05-03T20:45:37.164Z,6.07
2023-05-03T20:48:08.013Z,6.10
2023-05-03T20:50:36.266Z,6.07
2023-05-03T20:53:04.813Z,5.57
2023-05-03T20:55:32.834Z,5.70
2023-05-03T20:58:00.848Z,6.40
2023-05-03T21:00:28.961Z,6.30
2023-05-03T21:02:56.997Z,6.47
2023-05-03T21:05:26.794Z,6.60
2023-05-03T21:07:54.795Z,6.38
2023-05-03T21:10:22.804Z,6.72
2023-05-03T21:12:51.049Z,6.57
2023-05-03T21:15:19.235Z,6.93
2023-05-03T21:17:47.340Z,7.15
2023-05-03T21:20:15.545Z,6.30
2023-05-03T21:22:44.888Z,6.50
2023-05-03T21:25:12.879Z,7.13
2023-05-03T21:27:40.850Z,7.03
2023-05-03T21:30:10.143Z,6.80
2023-05-03T21:32:38.101Z,6.95
2023-05-03T21:35:07.055Z,7.05
2023-05-03T21:37:35.034Z,7.00
2023-05-03T21:40:05.154Z,7.45
2023-05-03T21:42:33.103Z,7.50
2023-05-03T21:45:01.071Z,6.57
2023-05-03T21:47:29.267Z,7.22
2023-05-03T21:49:57.532Z,6.50
2023-05-03T21:52:25.605Z,7.13
2023-05-03T21:54:54.415Z,6.40
2023-05-03T21:57:23.730Z,5.90
2023-05-03T21:59:54.012Z,6.45
2023-05-03T22:02:22.617Z,6.80
2023-05-03T22:04:51.475Z,6.50
2023-05-03T22:07:19.479Z,5.95
2023-05-03T22:09:47.920Z,5.70
2023-05-03T22:14:48.460Z,6.50
2023-05-03T22:17:16.478Z,6.60
2023-05-03T22:19:44.518Z,6.25
2023-05-03T22:22:12.462Z,6.38
2023-05-03T22:24:40.746Z,6.35
2023-05-03T22:27:08.891Z,6.47
2023-05-03T22:29:37.431Z,6.38
2023-05-03T22:32:07.816Z,6.35
2023-05-03T22:34:36.221Z,6.20
2023-05-03T22:37:04.194Z,6.93
2023-05-03T22:39:32.231Z,6.65
2023-05-03T22:42:00.257Z,7.00
2023-05-03T22:44:28.419Z,6.38
2023-05-03T22:46:57.543Z,6.97
2023-05-03T22:49:27.601Z,6.15
2023-05-03T22:51:55.627Z,6.45
2023-05-03T22:54:23.619Z,6.90
2023-05-03T22:56:52.105Z,6.70
2023-05-03T22:59:20.146Z,6.57
2023-05-03T23:01:49.422Z,6.65
2023-05-03T23:04:17.622Z,7.57
2023-05-03T23:06:46.973Z,7.63
2023-05-03T23:09:14.984Z,7.20
2023-05-03T23:11:43.241Z,7.70
2023-05-03T23:14:11.212Z,6.90
2023-05-03T23:16:39.713Z,6.70
2023-05-03T23:19:08.199Z,7.10
2023-05-03T23:21:36.230Z,6.88
2023-05-03T23:24:06.462Z,6.70
2023-05-03T23:26:34.787Z,7.28
2023-05-03T23:29:03.315Z,6.88
2023-05-03T23:31:32.962Z,7.45
2023-05-03T23:34:05.055Z,7.03
2023-05-03T23:36:34.134Z,7.57
2023-05-03T23:39:02.900Z,7.15
2023-05-03T23:41:33.985Z,7.50
2023-05-03T23:44:02.147Z,7.57
2023-05-03T23:46:30.201Z,8.00
2023-05-03T23:48:58.123Z,8.07
2023-05-03T23:51:26.102Z,7.30
2023-05-03T23:53:54.122Z,7.82
2023-05-03T23:56:22.201Z,8.05
2023-05-03T23:58:51.696Z,7.68
